createdAt,value
2019-01-02T00:00:22.062Z,5.61
2019-01-02T00:01:21.935Z,5.64
2019-01-02T00:02:21.934Z,5.65
2019-01-02T00:03:21.823Z,5.69
2019-01-02T00:04:21.819Z,5.56
2019-01-02T00:05:21.815Z,5.65
2019-01-02T00:06:21.699Z,5.65
2019-01-02T00:07:21.693Z,5.55
2019-01-02T00:08:21.654Z,5.64
2019-01-02T00:09:21.574Z,5.64
2019-01-02T00:10:21.572Z,5.61
2019-01-02T00:11:21.534Z,5.59
2019-01-02T00:12:21.488Z,5.59
2019-01-02T00:13:21.331Z,5.65
2019-01-02T00:14:21.329Z,5.64
2019-01-02T00:15:21.329Z,5.62
2019-01-02T00:16:21.209Z,5.58
2019-01-02T00:17:21.207Z,5.65
2019-01-02T00:18:21.098Z,5.74
2019-01-02T00:19:21.172Z,5.73
2019-01-02T00:20:21.089Z,5.69
2019-01-02T00:21:20.974Z,5.73
2019-01-02T00:22:20.973Z,5.74
2019-01-02T00:23:20.851Z,5.64
2019-01-02T00:24:20.855Z,5.74
2019-01-02T00:25:20.810Z,5.76
2019-01-02T00:26:24.088Z,5.72
2019-01-02T00:27:20.728Z,5.77
2019-01-02T00:28:20.611Z,5.77
2019-01-02T00:29:20.617Z,5.81
2019-01-02T00:30:20.492Z,5.83
2019-01-02T00:31:20.490Z,5.81
2019-01-02T00:32:20.487Z,5.80
2019-01-02T00:33:20.368Z,5.80
2019-01-02T00:34:20.367Z,5.81
2019-01-02T00:35:20.247Z,5.80
2019-01-02T00:36:20.250Z,5.79
2019-01-02T00:37:20.251Z,5.83
2019-01-02T00:38:20.125Z,5.81
2019-01-02T00:39:20.126Z,5.80
2019-01-02T00:40:20.003Z,5.90
2019-01-02T00:41:20.007Z,5.83
2019-01-02T00:42:20.004Z,5.84
2019-01-02T00:43:19.890Z,5.77
2019-01-02T00:44:19.887Z,5.90
2019-01-02T00:45:22.571Z,5.83
2019-01-02T00:46:19.768Z,5.81
2019-01-02T00:47:19.770Z,5.84
2019-01-02T00:48:19.649Z,5.83
2019-01-02T00:49:19.657Z,5.88
2019-01-02T00:50:19.525Z,5.84
2019-01-02T00:51:19.523Z,5.84
2019-01-02T00:52:19.484Z,5.88
2019-01-02T00:53:19.405Z,5.90
2019-01-02T00:54:19.400Z,5.88
2019-01-02T00:55:19.287Z,5.88
2019-01-02T00:56:19.283Z,5.92
2019-01-02T00:57:19.177Z,5.95
2019-01-02T00:58:19.180Z,5.91
2019-01-02T00:59:19.168Z,5.94
2019-01-02T01:00:19.039Z,5.91
2019-01-02T01:01:19.048Z,5.87
2019-01-02T01:02:18.920Z,5.91
2019-01-02T01:03:18.922Z,5.88
2019-01-02T01:04:18.919Z,5.95
2019-01-02T01:05:18.806Z,5.88
2019-01-02T01:06:18.800Z,5.84
2019-01-02T01:07:18.678Z,5.91
2019-01-02T01:08:18.684Z,5.88
2019-01-02T01:09:18.685Z,5.87
2019-01-02T01:10:18.562Z,5.84
2019-01-02T01:11:18.561Z,5.91
2019-01-02T01:12:18.446Z,5.94
2019-01-02T01:13:18.435Z,5.98
2019-01-02T01:14:18.436Z,5.95
2019-01-02T01:15:18.319Z,5.94
2019-01-02T01:16:18.319Z,5.95
2019-01-02T01:17:18.198Z,5.94
2019-01-02T01:18:18.199Z,5.98
2019-01-02T01:19:18.201Z,5.95
2019-01-02T01:20:18.078Z,5.99
2019-01-02T01:21:18.079Z,6.01
2019-01-02T01:22:17.968Z,6.01
2019-01-02T01:23:17.958Z,6.05
2019-01-02T01:24:17.847Z,6.01
2019-01-02T01:25:17.835Z,5.99
2019-01-02T01:26:17.833Z,6.05
2019-01-02T01:27:17.715Z,6.07
2019-01-02T01:28:17.722Z,5.97
2019-01-02T01:29:17.594Z,6.09
2019-01-02T01:30:17.593Z,6.05
2019-01-02T01:31:17.594Z,6.05
2019-01-02T01:32:17.471Z,6.05
2019-01-02T01:33:17.473Z,6.10
2019-01-02T01:34:17.353Z,6.07
2019-01-02T01:35:17.361Z,5.95
2019-01-02T01:36:17.362Z,6.01
2019-01-02T01:37:17.235Z,6.06
2019-01-02T01:38:17.230Z,6.05
2019-01-02T01:39:17.119Z,6.05
2019-01-02T01:40:17.115Z,6.06
2019-01-02T01:41:17.121Z,6.02
2019-01-02T01:42:16.996Z,6.07
2019-01-02T01:43:16.996Z,5.98
2019-01-02T01:44:16.882Z,6.01
2019-01-02T01:45:16.881Z,6.09
2019-01-02T01:46:16.871Z,6.05
2019-01-02T01:47:16.875Z,6.06
2019-01-02T01:48:16.873Z,5.98
2019-01-02T01:49:16.638Z,6.01
2019-01-02T01:50:16.630Z,5.97
2019-01-02T01:51:16.508Z,6.05
2019-01-02T01:52:16.510Z,6.01
2019-01-02T01:53:16.509Z,5.97
2019-01-02T01:54:16.389Z,6.05
2019-01-02T01:55:16.390Z,6.05
2019-01-02T01:56:16.271Z,5.99
2019-01-02T01:57:16.267Z,6.01
2019-01-02T01:58:16.280Z,5.97
2019-01-02T01:59:16.152Z,6.05
2019-01-02T02:00:16.146Z,6.01
2019-01-02T02:01:16.027Z,5.94
2019-01-02T02:02:16.032Z,5.94
2019-01-02T02:03:16.027Z,5.94
2019-01-02T02:04:15.915Z,5.90
2019-01-02T02:05:15.913Z,5.98
2019-01-02T02:06:15.793Z,5.92
2019-01-02T02:07:15.787Z,5.84
2019-01-02T02:08:15.786Z,5.87
2019-01-02T02:09:15.675Z,5.91
2019-01-02T02:10:15.665Z,5.91
2019-01-02T02:11:15.543Z,5.98
2019-01-02T02:12:15.630Z,5.87
2019-01-02T02:13:15.515Z,5.94
2019-01-02T02:14:15.428Z,5.98
2019-01-02T02:15:15.423Z,5.94
2019-01-02T02:16:15.309Z,5.91
2019-01-02T02:17:15.385Z,6.01
2019-01-02T02:18:15.183Z,6.01
2019-01-02T02:19:15.186Z,6.01
2019-01-02T02:20:15.183Z,5.99
2019-01-02T02:21:15.064Z,5.92
2019-01-02T02:22:15.062Z,5.98
2019-01-02T02:23:14.944Z,5.97
2019-01-02T02:24:14.941Z,5.94
2019-01-02T02:25:14.946Z,5.95
2019-01-02T02:26:14.819Z,5.94
2019-01-02T02:27:14.822Z,5.98
2019-01-02T02:28:14.704Z,5.94
2019-01-02T02:29:14.704Z,5.84
2019-01-02T02:30:14.702Z,5.94
2019-01-02T02:31:14.584Z,5.91
2019-01-02T02:32:14.583Z,5.90
2019-01-02T02:33:14.462Z,5.87
2019-01-02T02:34:14.470Z,5.87
2019-01-02T02:35:14.462Z,5.88
2019-01-02T02:36:14.339Z,5.83
2019-01-02T02:37:14.346Z,5.92
2019-01-02T02:38:14.220Z,5.79
2019-01-02T02:39:14.274Z,5.81
2019-01-02T02:40:14.098Z,5.87
2019-01-02T02:41:14.105Z,5.81
2019-01-02T02:42:14.099Z,5.83
2019-01-02T02:43:13.979Z,5.88
2019-01-02T02:44:13.982Z,5.80
2019-01-02T02:45:13.857Z,5.77
2019-01-02T02:46:13.856Z,5.84
2019-01-02T02:47:13.860Z,5.83
2019-01-02T02:48:13.739Z,5.83
2019-01-02T02:49:13.737Z,5.83
2019-01-02T02:50:13.623Z,5.80
2019-01-02T02:51:13.623Z,5.83
2019-01-02T02:52:13.619Z,5.83
2019-01-02T02:53:13.501Z,5.87
2019-01-02T02:54:13.500Z,5.79
2019-01-02T02:55:13.376Z,5.77
2019-01-02T02:56:13.384Z,5.77
2019-01-02T02:57:13.372Z,5.80
2019-01-02T02:58:13.260Z,5.73
2019-01-02T02:59:13.258Z,5.74
2019-01-02T03:00:13.132Z,5.73
2019-01-02T03:01:13.134Z,5.76
2019-01-02T03:02:13.012Z,5.72
2019-01-02T03:03:13.010Z,5.67
2019-01-02T03:04:13.013Z,5.70
2019-01-02T03:05:12.891Z,5.64
2019-01-02T03:06:12.892Z,5.65
2019-01-02T03:07:12.776Z,5.67
2019-01-02T03:08:12.778Z,5.59
2019-01-02T03:09:12.778Z,5.69
2019-01-02T03:10:12.653Z,5.64
2019-01-02T03:11:12.652Z,5.59
2019-01-02T03:12:12.537Z,5.65
2019-01-02T03:13:12.534Z,5.61
2019-01-02T03:14:12.537Z,5.65
2019-01-02T03:15:12.414Z,5.70
2019-01-02T03:16:12.414Z,5.62
2019-01-02T03:17:12.294Z,5.67
2019-01-02T03:18:12.299Z,5.61
2019-01-02T03:19:12.290Z,5.61
2019-01-02T03:20:12.210Z,5.67
2019-01-02T03:21:12.170Z,5.65
2019-01-02T03:22:12.057Z,5.67
2019-01-02T03:23:12.052Z,5.64
2019-01-02T03:24:12.043Z,5.58
2019-01-02T03:25:11.932Z,5.61
2019-01-02T03:26:11.932Z,5.59
2019-01-02T03:27:11.808Z,5.61
2019-01-02T03:28:11.809Z,5.62
2019-01-02T03:29:11.687Z,5.61
2019-01-02T03:30:11.687Z,5.65
2019-01-02T03:31:11.688Z,5.64
2019-01-02T03:32:11.571Z,5.61
2019-01-02T03:33:11.570Z,5.67
2019-01-02T03:34:11.458Z,5.61
2019-01-02T03:35:11.452Z,5.62
2019-01-02T03:36:11.450Z,5.65
2019-01-02T03:37:11.326Z,5.58
2019-01-02T03:38:11.333Z,5.61
2019-01-02T03:39:11.209Z,5.65
2019-01-02T03:40:11.209Z,5.62
2019-01-02T03:41:11.206Z,5.62
2019-01-02T03:42:11.093Z,5.61
2019-01-02T03:43:11.086Z,5.59
2019-01-02T03:44:10.975Z,5.64
2019-01-02T03:45:10.977Z,5.70
2019-01-02T03:46:10.957Z,5.55
2019-01-02T03:47:10.845Z,5.69
2019-01-02T03:48:10.861Z,5.58
2019-01-02T03:49:10.724Z,5.65
2019-01-02T03:50:10.733Z,5.69
2019-01-02T03:51:10.605Z,5.69
2019-01-02T03:52:10.602Z,5.64
2019-01-02T03:53:10.606Z,5.69
2019-01-02T03:54:10.487Z,5.69
2019-01-02T03:55:10.481Z,5.69
2019-01-02T03:56:10.489Z,5.65
2019-01-02T03:57:10.363Z,5.67
2019-01-02T03:58:10.362Z,5.72
2019-01-02T03:59:10.250Z,5.73
2019-01-02T04:00:10.247Z,5.67
2019-01-02T04:01:10.121Z,5.67
2019-01-02T04:02:10.127Z,5.77
2019-01-02T04:03:10.121Z,5.77
2019-01-02T04:04:10.001Z,5.74
2019-01-02T04:05:10.009Z,5.76
2019-01-02T04:06:09.879Z,5.81
2019-01-02T04:07:09.884Z,5.80
2019-01-02T04:08:09.877Z,5.80
2019-01-02T04:09:09.762Z,5.77
2019-01-02T04:10:09.759Z,5.81
2019-01-02T04:11:09.647Z,5.79
2019-01-02T04:12:09.648Z,5.77
2019-01-02T04:13:09.529Z,5.79
2019-01-02T04:14:09.520Z,5.81
2019-01-02T04:15:09.518Z,5.81
2019-01-02T04:16:09.399Z,5.80
2019-01-02T04:17:09.398Z,5.81
2019-01-02T04:18:09.277Z,5.81
2019-01-02T04:19:09.277Z,5.81
2019-01-02T04:20:09.283Z,5.83
2019-01-02T04:21:09.160Z,5.83
2019-01-02T04:22:09.158Z,5.92
2019-01-02T04:23:09.044Z,5.83
2019-01-02T04:24:09.037Z,5.90
2019-01-02T04:25:09.045Z,5.81
2019-01-02T04:26:08.923Z,5.84
2019-01-02T04:27:08.921Z,5.81
2019-01-02T04:28:08.799Z,5.84
2019-01-02T04:29:08.798Z,5.79
2019-01-02T04:30:08.796Z,5.83
2019-01-02T04:31:08.685Z,5.81
2019-01-02T04:32:08.678Z,5.80
2019-01-02T04:33:08.558Z,5.81
2019-01-02T04:34:08.560Z,5.84
2019-01-02T04:35:08.434Z,5.83
2019-01-02T04:36:08.432Z,5.81
2019-01-02T04:37:08.433Z,5.91
2019-01-02T04:38:08.315Z,5.94
2019-01-02T04:39:08.320Z,5.84
2019-01-02T04:40:08.195Z,5.88
2019-01-02T04:41:08.193Z,5.88
2019-01-02T04:42:08.192Z,5.91
2019-01-02T04:43:08.071Z,5.90
2019-01-02T04:44:08.069Z,5.88
2019-01-02T04:45:07.952Z,5.87
2019-01-02T04:46:07.952Z,5.90
2019-01-02T04:47:07.960Z,5.90
2019-01-02T04:48:07.836Z,5.88
2019-01-02T04:49:07.832Z,5.87
2019-01-02T04:50:07.711Z,5.90
2019-01-02T04:51:07.721Z,5.91
2019-01-02T04:52:07.720Z,5.90
2019-01-02T04:53:07.590Z,5.90
2019-01-02T04:54:07.595Z,5.92
2019-01-02T04:55:07.473Z,5.87
2019-01-02T04:56:07.474Z,5.88
2019-01-02T04:57:07.463Z,5.91
2019-01-02T04:58:07.354Z,5.90
2019-01-02T04:59:07.352Z,5.92
2019-01-02T05:00:07.231Z,5.88
2019-01-02T05:01:07.233Z,5.88
2019-01-02T05:02:07.111Z,5.88
2019-01-02T05:03:07.115Z,5.84
2019-01-02T05:04:07.110Z,5.83
2019-01-02T05:05:06.992Z,5.92
2019-01-02T05:06:06.990Z,5.87
2019-01-02T05:07:06.865Z,5.92
2019-01-02T05:08:06.868Z,5.87
2019-01-02T05:09:06.872Z,5.91
2019-01-02T05:10:06.749Z,5.83
2019-01-02T05:11:06.750Z,5.91
2019-01-02T05:12:06.634Z,5.92
2019-01-02T05:13:06.632Z,5.90
2019-01-02T05:14:06.626Z,5.94
2019-01-02T05:15:06.504Z,5.95
2019-01-02T05:16:06.509Z,5.94
2019-01-02T05:17:06.389Z,5.88
2019-01-02T05:18:06.383Z,5.91
2019-01-02T05:19:06.384Z,5.90
2019-01-02T05:20:06.265Z,5.90
2019-01-02T05:21:06.268Z,5.91
2019-01-02T05:22:06.146Z,5.90
2019-01-02T05:23:06.146Z,5.88
2019-01-02T05:24:06.026Z,5.87
2019-01-02T05:25:06.022Z,5.95
2019-01-02T05:26:06.033Z,5.90
2019-01-02T05:27:05.905Z,5.92
2019-01-02T05:28:05.903Z,5.94
2019-01-02T05:29:05.785Z,5.94
2019-01-02T05:30:05.788Z,6.01
2019-01-02T05:31:05.783Z,6.06
2019-01-02T05:32:05.664Z,5.92
2019-01-02T05:33:05.663Z,5.98
2019-01-02T05:34:05.542Z,6.01
2019-01-02T05:35:05.543Z,6.07
2019-01-02T05:36:05.544Z,6.01
2019-01-02T05:37:05.421Z,6.06
2019-01-02T05:38:05.426Z,6.06
2019-01-02T05:39:05.297Z,5.95
2019-01-02T05:40:05.299Z,5.95
2019-01-02T05:41:05.298Z,6.01
2019-01-02T05:42:05.181Z,6.02
2019-01-02T05:43:05.181Z,6.06
2019-01-02T05:44:05.064Z,5.98
2019-01-02T05:45:05.061Z,6.05
2019-01-02T05:46:05.024Z,6.06
2019-01-02T05:47:04.940Z,5.97
2019-01-02T05:48:04.944Z,5.95
2019-01-02T05:49:04.817Z,5.91
2019-01-02T05:50:04.818Z,5.91
2019-01-02T05:51:04.705Z,5.83
2019-01-02T05:52:04.751Z,5.90
2019-01-02T05:53:04.696Z,5.84
2019-01-02T05:54:04.582Z,5.92
2019-01-02T05:55:04.575Z,5.92
2019-01-02T05:56:04.457Z,5.83
2019-01-02T05:57:04.463Z,5.80
2019-01-02T05:58:04.458Z,5.83
2019-01-02T05:59:04.339Z,5.83
2019-01-02T06:00:04.337Z,5.77
2019-01-02T06:01:04.229Z,5.76
2019-01-02T06:02:04.226Z,5.77
2019-01-02T06:03:04.219Z,5.67
2019-01-02T06:04:04.095Z,5.73
2019-01-02T06:05:04.096Z,5.76
2019-01-02T06:06:03.978Z,5.61
2019-01-02T06:07:03.975Z,5.61
2019-01-02T06:08:03.977Z,5.59
2019-01-02T06:09:03.857Z,5.58
2019-01-02T06:10:03.859Z,5.65
2019-01-02T06:11:03.730Z,5.54
2019-01-02T06:12:03.741Z,5.61
2019-01-02T06:13:03.748Z,5.56
2019-01-02T06:14:03.612Z,5.54
2019-01-02T06:15:03.616Z,5.44
2019-01-02T06:16:03.493Z,5.52
2019-01-02T06:17:03.492Z,5.55
2019-01-02T06:18:03.458Z,5.59
2019-01-02T06:19:03.370Z,5.54
2019-01-02T06:20:03.369Z,5.37
2019-01-02T06:21:03.258Z,5.40
2019-01-02T06:22:03.249Z,5.46
2019-01-02T06:23:03.140Z,5.41
2019-01-02T06:24:03.130Z,5.40
2019-01-02T06:25:03.153Z,5.38
2019-01-02T06:26:03.010Z,5.40
2019-01-02T06:27:03.012Z,5.37
2019-01-02T06:28:02.891Z,5.40
2019-01-02T06:29:02.893Z,5.40
2019-01-02T06:30:02.895Z,5.40
2019-01-02T06:31:02.771Z,5.40
2019-01-02T06:32:02.775Z,5.37
2019-01-02T06:33:02.650Z,5.44
2019-01-02T06:34:02.648Z,5.51
2019-01-02T06:35:02.619Z,5.46
2019-01-02T06:36:02.530Z,5.54
2019-01-02T06:37:02.529Z,5.56
2019-01-02T06:38:02.408Z,5.61
2019-01-02T06:39:02.408Z,5.52
2019-01-02T06:40:02.293Z,5.49
2019-01-02T06:41:02.296Z,5.52
2019-01-02T06:42:02.285Z,5.51
2019-01-02T06:43:02.171Z,5.58
2019-01-02T06:44:02.169Z,5.56
2019-01-02T06:45:02.052Z,5.52
2019-01-02T06:46:02.051Z,5.55
2019-01-02T06:47:02.047Z,5.58
2019-01-02T06:48:01.932Z,5.62
2019-01-02T06:49:01.933Z,5.54
2019-01-02T06:50:01.818Z,5.58
2019-01-02T06:51:01.805Z,5.56
2019-01-02T06:52:01.806Z,5.61
2019-01-02T06:53:01.691Z,5.54
2019-01-02T06:54:01.684Z,5.59
2019-01-02T06:55:01.565Z,5.59
2019-01-02T06:56:01.563Z,5.61
2019-01-02T06:57:01.449Z,5.55
2019-01-02T06:58:01.445Z,5.62
2019-01-02T06:59:01.448Z,5.62
2019-01-02T07:00:01.326Z,5.65
2019-01-02T07:01:01.326Z,5.58
2019-01-02T07:02:01.286Z,5.61
2019-01-02T07:03:01.209Z,5.61
2019-01-02T07:04:01.209Z,5.72
2019-01-02T07:05:01.085Z,5.65
2019-01-02T07:06:01.082Z,5.58
2019-01-02T07:07:00.976Z,5.59
2019-01-02T07:08:00.959Z,5.58
2019-01-02T07:09:01.045Z,5.58
2019-01-02T07:10:00.882Z,5.64
2019-01-02T07:11:00.846Z,5.67
2019-01-02T07:12:00.725Z,5.69
2019-01-02T07:13:00.723Z,5.62
2019-01-02T07:14:00.724Z,5.70
2019-01-02T07:15:00.608Z,5.72
2019-01-02T07:16:00.601Z,5.72
2019-01-02T07:17:00.479Z,5.73
2019-01-02T07:18:00.494Z,5.69
2019-01-02T07:19:00.356Z,5.64
2019-01-02T07:20:00.362Z,5.70
2019-01-02T07:21:00.371Z,5.73
2019-01-02T07:22:00.244Z,5.69
2019-01-02T07:23:00.238Z,5.67
2019-01-02T07:24:00.118Z,5.73
2019-01-02T07:25:00.166Z,5.79
2019-01-02T07:26:00.121Z,5.76
2019-01-02T07:26:59.995Z,5.74
2019-01-02T07:28:00.001Z,5.79
2019-01-02T07:28:59.877Z,5.79
2019-01-02T07:29:59.878Z,5.76
2019-01-02T07:30:59.876Z,5.79
2019-01-02T07:31:59.758Z,5.80
2019-01-02T07:32:59.758Z,5.83
2019-01-02T07:33:59.638Z,5.83
2019-01-02T07:34:59.636Z,5.79
2019-01-02T07:35:59.635Z,5.81
2019-01-02T07:36:59.518Z,5.79
2019-01-02T07:37:59.516Z,5.80
2019-01-02T07:38:59.392Z,5.81
2019-01-02T07:39:59.396Z,5.81
2019-01-02T07:40:59.355Z,5.77
2019-01-02T07:41:59.276Z,5.74
2019-01-02T07:42:59.276Z,5.76
2019-01-02T07:43:59.151Z,5.72
2019-01-02T07:44:59.151Z,5.77
2019-01-02T07:45:59.042Z,5.64
2019-01-02T07:46:59.046Z,5.69
2019-01-02T07:47:59.041Z,5.67
2019-01-02T07:48:58.915Z,5.67
2019-01-02T07:49:58.910Z,5.67
2019-01-02T07:51:00.344Z,5.64
2019-01-02T07:51:58.802Z,5.72
2019-01-02T07:52:58.792Z,5.72
2019-01-02T07:53:58.675Z,5.72
2019-01-02T07:54:58.669Z,5.70
2019-01-02T07:55:58.550Z,5.67
2019-01-02T07:56:58.549Z,5.70
2019-01-02T07:57:58.548Z,5.70
2019-01-02T07:58:58.434Z,5.70
2019-01-02T07:59:58.432Z,5.74
2019-01-02T08:00:58.309Z,5.76
2019-01-02T08:01:58.309Z,5.77
2019-01-02T08:02:58.310Z,5.81
2019-01-02T08:03:58.191Z,5.77
2019-01-02T08:04:58.195Z,5.74
2019-01-02T08:05:58.068Z,5.76
2019-01-02T08:06:58.078Z,5.80
2019-01-02T08:07:57.949Z,5.77
2019-01-02T08:08:57.946Z,5.83
2019-01-02T08:09:57.947Z,5.83
2019-01-02T08:10:57.826Z,5.81
2019-01-02T08:11:57.825Z,5.81
2019-01-02T08:12:57.705Z,5.87
2019-01-02T08:13:57.711Z,5.83
2019-01-02T08:15:03.076Z,5.81
2019-01-02T08:15:57.585Z,5.94
2019-01-02T08:16:57.590Z,5.88
2019-01-02T08:17:57.467Z,5.88
2019-01-02T08:18:57.463Z,5.90
2019-01-02T08:19:57.465Z,5.83
2019-01-02T08:20:57.346Z,5.97
2019-01-02T08:21:57.356Z,5.99
2019-01-02T08:22:57.222Z,5.91
2019-01-02T08:23:57.225Z,5.98
2019-01-02T08:24:57.224Z,5.94
2019-01-02T08:25:57.105Z,5.97
2019-01-02T08:26:57.113Z,6.01
2019-01-02T08:27:56.984Z,5.94
2019-01-02T08:28:56.984Z,5.97
2019-01-02T08:29:56.944Z,6.05
2019-01-02T08:30:56.870Z,6.05
2019-01-02T08:31:56.864Z,6.02
2019-01-02T08:32:56.739Z,5.98
2019-01-02T08:33:56.744Z,6.01
2019-01-02T08:34:56.620Z,5.97
2019-01-02T08:35:56.627Z,5.98
2019-01-02T08:36:56.638Z,5.97
2019-01-02T08:37:56.501Z,5.99
2019-01-02T08:38:56.508Z,6.05
2019-01-02T08:39:56.379Z,6.05
2019-01-02T08:40:56.390Z,5.99
2019-01-02T08:41:56.379Z,6.07
2019-01-02T08:42:56.261Z,6.02
2019-01-02T08:43:56.261Z,6.10
2019-01-02T08:44:56.141Z,6.13
2019-01-02T08:45:56.143Z,6.06
2019-01-02T08:46:56.138Z,6.15
2019-01-02T08:47:56.018Z,6.09
2019-01-02T08:48:56.017Z,6.10
2019-01-02T08:49:55.901Z,6.09
2019-01-02T08:50:55.895Z,6.15
2019-01-02T08:51:55.900Z,6.13
2019-01-02T08:52:55.776Z,6.12
2019-01-02T08:53:55.778Z,6.16
2019-01-02T08:54:55.655Z,6.15
2019-01-02T08:55:55.656Z,6.09
2019-01-02T08:56:55.539Z,6.16
2019-01-02T08:57:55.540Z,6.20
2019-01-02T08:58:55.539Z,6.25
2019-01-02T08:59:55.413Z,6.28
2019-01-02T09:00:55.416Z,6.32
2019-01-02T09:01:55.304Z,6.28
2019-01-02T09:02:55.297Z,6.32
2019-01-02T09:03:55.305Z,6.34
2019-01-02T09:04:55.183Z,6.19
2019-01-02T09:05:55.176Z,6.22
2019-01-02T09:06:55.063Z,6.26
2019-01-02T09:07:55.055Z,6.26
2019-01-02T09:08:55.060Z,6.36
2019-01-02T09:09:54.934Z,6.35
2019-01-02T09:10:54.931Z,6.38
2019-01-02T09:11:54.812Z,6.39
2019-01-02T09:12:54.811Z,6.35
2019-01-02T09:13:54.812Z,6.36
2019-01-02T09:14:54.696Z,6.36
2019-01-02T09:15:54.695Z,6.41
2019-01-02T09:16:54.571Z,6.35
2019-01-02T09:17:54.574Z,6.47
2019-01-02T09:18:54.569Z,6.47
2019-01-02T09:19:54.451Z,6.59
2019-01-02T09:20:54.456Z,6.56
2019-01-02T09:21:54.331Z,6.65
2019-01-02T09:22:54.333Z,6.62
2019-01-02T09:23:54.294Z,6.72
2019-01-02T09:24:54.221Z,6.67
2019-01-02T09:25:54.209Z,6.62
2019-01-02T09:26:54.097Z,6.72
2019-01-02T09:27:54.089Z,6.74
2019-01-02T09:28:53.968Z,6.74
2019-01-02T09:29:53.970Z,6.82
2019-01-02T09:30:54.053Z,6.87
2019-01-02T09:31:53.847Z,6.87
2019-01-02T09:32:53.853Z,6.83
2019-01-02T09:33:53.808Z,6.89
2019-01-02T09:34:53.729Z,6.82
2019-01-02T09:35:53.844Z,6.87
2019-01-02T09:36:53.609Z,6.93
2019-01-02T09:37:53.606Z,6.90
2019-01-02T09:38:53.488Z,6.95
2019-01-02T09:39:53.491Z,6.96
2019-01-02T09:40:53.486Z,6.87
2019-01-02T09:41:53.370Z,6.86
2019-01-02T09:42:53.367Z,6.87
2019-01-02T09:43:53.245Z,6.86
2019-01-02T09:44:53.248Z,6.89
2019-01-02T09:45:53.244Z,6.85
2019-01-02T09:46:53.917Z,6.87
2019-01-02T09:47:53.151Z,6.90
2019-01-02T09:48:53.005Z,6.90
2019-01-02T09:49:53.010Z,6.90
2019-01-02T09:50:53.009Z,6.92
2019-01-02T09:51:52.886Z,6.96
2019-01-02T09:52:52.894Z,6.92
2019-01-02T09:53:52.765Z,6.85
2019-01-02T09:54:52.765Z,6.87
2019-01-02T09:55:52.768Z,6.90
2019-01-02T09:56:52.647Z,6.87
2019-01-02T09:57:52.651Z,6.87
2019-01-02T09:58:52.533Z,6.90
2019-01-02T09:59:52.521Z,6.83
2019-01-02T10:00:52.522Z,6.90
2019-01-02T10:01:52.407Z,6.89
2019-01-02T10:02:52.413Z,6.87
2019-01-02T10:03:52.280Z,6.97
2019-01-02T10:04:52.280Z,6.97
2019-01-02T10:05:52.280Z,6.95
2019-01-02T10:06:52.160Z,7.01
2019-01-02T10:07:52.161Z,7.03
2019-01-02T10:08:52.040Z,7.05
2019-01-02T10:09:52.153Z,7.05
2019-01-02T10:10:51.927Z,7.08
2019-01-02T10:11:51.920Z,7.07
2019-01-02T10:12:51.922Z,7.04
2019-01-02T10:13:51.801Z,7.08
2019-01-02T10:14:51.800Z,7.05
2019-01-02T10:15:51.681Z,7.05
2019-01-02T10:16:51.680Z,7.01
2019-01-02T10:17:51.679Z,7.04
2019-01-02T10:18:51.558Z,7.03
2019-01-02T10:19:51.563Z,6.97
2019-01-02T10:20:51.452Z,7.01
2019-01-02T10:21:51.446Z,7.15
2019-01-02T10:22:51.435Z,7.13
2019-01-02T10:23:51.323Z,7.23
2019-01-02T10:24:51.316Z,7.25
2019-01-02T10:25:51.198Z,7.18
2019-01-02T10:26:51.197Z,7.29
2019-01-02T10:27:51.205Z,7.29
2019-01-02T10:28:51.080Z,7.36
2019-01-02T10:29:51.088Z,7.36
2019-01-02T10:30:50.958Z,7.36
2019-01-02T10:31:50.955Z,7.31
2019-01-02T10:32:50.954Z,7.31
2019-01-02T10:33:50.834Z,7.28
2019-01-02T10:34:50.833Z,7.29
2019-01-02T10:35:50.718Z,7.28
2019-01-02T10:36:50.712Z,7.39
2019-01-02T10:37:50.714Z,7.36
2019-01-02T10:38:50.591Z,7.33
2019-01-02T10:39:50.600Z,7.36
2019-01-02T10:40:50.477Z,7.33
2019-01-02T10:41:50.474Z,7.26
2019-01-02T10:42:50.556Z,7.33
2019-01-02T10:43:50.354Z,7.22
2019-01-02T10:44:50.352Z,7.26
2019-01-02T10:45:50.236Z,7.29
2019-01-02T10:46:50.232Z,7.31
2019-01-02T10:47:50.230Z,7.28
2019-01-02T10:48:50.111Z,7.39
2019-01-02T10:49:50.112Z,7.26
2019-01-02T10:50:49.988Z,7.23
2019-01-02T10:51:49.999Z,7.26
2019-01-02T10:52:49.989Z,7.31
2019-01-02T10:53:49.872Z,7.32
2019-01-02T10:54:49.876Z,7.25
2019-01-02T10:55:49.747Z,7.31
2019-01-02T10:56:49.746Z,7.31
2019-01-02T10:57:49.746Z,7.39
2019-01-02T10:58:49.635Z,7.33
2019-01-02T10:59:49.630Z,7.37
2019-01-02T11:00:49.514Z,7.25
2019-01-02T11:01:49.507Z,7.28
2019-01-02T11:02:49.506Z,7.18
2019-01-02T11:03:49.391Z,7.23
2019-01-02T11:04:49.390Z,7.32
2019-01-02T11:05:49.264Z,7.19
2019-01-02T11:06:49.265Z,7.22
2019-01-02T11:07:49.274Z,7.21
2019-01-02T11:08:49.159Z,7.31
2019-01-02T11:09:50.309Z,7.29
2019-01-02T11:10:49.043Z,7.28
2019-01-02T11:11:49.024Z,7.32
2019-01-02T11:12:49.022Z,7.31
2019-01-02T11:13:48.911Z,7.28
2019-01-02T11:14:48.915Z,7.28
2019-01-02T11:15:48.782Z,7.26
2019-01-02T11:16:48.782Z,7.32
2019-01-02T11:17:48.781Z,7.28
2019-01-02T11:18:48.663Z,7.33
2019-01-02T11:19:48.665Z,7.39
2019-01-02T11:20:48.551Z,7.31
2019-01-02T11:21:48.545Z,7.40
2019-01-02T11:22:48.504Z,7.31
2019-01-02T11:23:48.425Z,7.43
2019-01-02T11:24:48.427Z,7.37
2019-01-02T11:25:48.300Z,7.40
2019-01-02T11:26:48.306Z,7.43
2019-01-02T11:27:48.301Z,7.37
2019-01-02T11:28:48.182Z,7.36
2019-01-02T11:29:48.179Z,7.44
2019-01-02T11:30:48.061Z,7.41
2019-01-02T11:31:48.058Z,7.47
2019-01-02T11:32:48.061Z,7.48
2019-01-02T11:33:47.941Z,7.48
2019-01-02T11:34:47.947Z,7.44
2019-01-02T11:35:47.831Z,7.56
2019-01-02T11:36:47.818Z,7.55
2019-01-02T11:37:47.698Z,7.59
2019-01-02T11:38:47.699Z,7.56
2019-01-02T11:39:47.697Z,7.46
2019-01-02T11:40:47.588Z,7.50
2019-01-02T11:41:47.588Z,7.58
2019-01-02T11:42:47.660Z,7.59
2019-01-02T11:43:47.462Z,7.64
2019-01-02T11:44:47.460Z,7.58
2019-01-02T11:45:47.336Z,7.61
2019-01-02T11:46:47.340Z,7.64
2019-01-02T11:47:47.217Z,7.74
2019-01-02T11:48:47.227Z,7.67
2019-01-02T11:49:47.216Z,7.72
2019-01-02T11:50:47.115Z,7.58
2019-01-02T11:51:47.100Z,7.74
2019-01-02T11:52:46.974Z,7.66
2019-01-02T11:53:46.995Z,7.72
2019-01-02T11:54:46.973Z,7.77
2019-01-02T11:55:46.856Z,7.74
2019-01-02T11:56:46.868Z,7.74
2019-01-02T11:57:46.736Z,7.72
2019-01-02T11:58:49.911Z,7.70
2019-01-02T11:59:46.731Z,7.69
2019-01-02T12:00:46.611Z,7.77
2019-01-02T12:01:46.615Z,7.72
2019-01-02T12:02:46.507Z,7.78
2019-01-02T12:03:46.492Z,7.83
2019-01-02T12:04:46.494Z,7.78
2019-01-02T12:05:46.378Z,7.95
2019-01-02T12:06:46.370Z,7.84
2019-01-02T12:07:46.256Z,7.84
2019-01-02T12:08:46.251Z,7.96
2019-01-02T12:09:46.261Z,7.99
2019-01-02T12:10:46.217Z,8.02
2019-01-02T12:11:46.132Z,7.96
2019-01-02T12:12:46.024Z,8.02
2019-01-02T12:13:46.024Z,8.01
2019-01-02T12:14:46.014Z,7.93
2019-01-02T12:15:45.890Z,8.02
2019-01-02T12:16:45.895Z,7.96
2019-01-02T12:17:45.769Z,8.01
2019-01-02T12:18:45.769Z,8.06
2019-01-02T12:19:45.769Z,7.96
2019-01-02T12:20:45.647Z,8.03
2019-01-02T12:21:45.651Z,8.08
2019-01-02T12:22:45.530Z,8.03
2019-01-02T12:23:45.531Z,8.02
2019-01-02T12:24:45.544Z,7.99
2019-01-02T12:25:45.406Z,7.96
2019-01-02T12:26:45.411Z,8.02
2019-01-02T12:27:45.288Z,8.02
2019-01-02T12:28:45.286Z,7.95
2019-01-02T12:29:45.286Z,7.99
2019-01-02T12:30:45.166Z,8.06
2019-01-02T12:31:45.167Z,8.14
2019-01-02T12:32:45.055Z,8.03
2019-01-02T12:33:45.059Z,8.02
2019-01-02T12:34:45.051Z,8.13
2019-01-02T12:35:44.931Z,8.18
2019-01-02T12:36:44.929Z,8.16
2019-01-02T12:37:44.805Z,8.16
2019-01-02T12:38:44.805Z,8.11
2019-01-02T12:39:44.806Z,8.17
2019-01-02T12:40:44.692Z,8.17
2019-01-02T12:41:44.683Z,8.06
2019-01-02T12:42:44.564Z,7.99
2019-01-02T12:43:44.565Z,8.03
2019-01-02T12:44:44.575Z,8.06
2019-01-02T12:45:44.443Z,8.03
2019-01-02T12:46:44.442Z,8.03
2019-01-02T12:47:44.320Z,8.06
2019-01-02T12:48:44.325Z,8.06
2019-01-02T12:49:44.322Z,8.08
2019-01-02T12:50:44.200Z,7.99
2019-01-02T12:51:44.201Z,8.02
2019-01-02T12:52:44.084Z,8.03
2019-01-02T12:53:44.082Z,8.06
2019-01-02T12:54:44.082Z,8.06
2019-01-02T12:55:43.964Z,8.06
2019-01-02T12:56:43.961Z,8.11
2019-01-02T12:57:43.839Z,8.11
2019-01-02T12:58:43.922Z,8.09
2019-01-02T12:59:43.845Z,8.05
2019-01-02T13:00:43.720Z,8.06
2019-01-02T13:01:43.721Z,8.06
2019-01-02T13:02:43.716Z,8.05
2019-01-02T13:03:43.601Z,8.09
2019-01-02T13:04:43.602Z,8.17
2019-01-02T13:05:43.478Z,8.16
2019-01-02T13:06:43.479Z,8.13
2019-01-02T13:07:44.715Z,8.14
2019-01-02T13:08:43.358Z,8.08
2019-01-02T13:09:43.357Z,8.11
2019-01-02T13:10:43.240Z,8.09
2019-01-02T13:11:43.236Z,8.08
2019-01-02T13:12:43.124Z,8.09
2019-01-02T13:13:43.117Z,8.05
2019-01-02T13:14:43.118Z,7.98
2019-01-02T13:15:42.997Z,7.96
2019-01-02T13:16:42.995Z,7.96
2019-01-02T13:17:42.957Z,7.96